createdAt,value
2018-02-09T00:00:02.199Z,66.81
2018-02-09T00:01:07.907Z,66.83
2018-02-09T00:02:14.443Z,66.94
2018-02-09T00:03:20.937Z,66.99
2018-02-09T00:04:26.620Z,67.02
2018-02-09T00:05:32.359Z,67.20
2018-02-09T00:06:38.087Z,67.14
2018-02-09T00:07:43.798Z,67.39
2018-02-09T00:08:49.499Z,67.65
2018-02-09T00:09:55.985Z,67.74
2018-02-09T00:11:01.728Z,67.87
2018-02-09T00:12:07.439Z,67.95
2018-02-09T00:13:13.919Z,68.05
2018-02-09T00:14:20.392Z,68.12
2018-02-09T00:15:26.113Z,68.25
2018-02-09T00:16:32.607Z,68.34
2018-02-09T00:17:38.328Z,68.44
2018-02-09T00:18:45.086Z,68.41
2018-02-09T00:19:50.803Z,68.49
2018-02-09T00:20:57.313Z,68.48
2018-02-09T00:22:03.053Z,68.50
2018-02-09T00:23:08.780Z,68.55
2018-02-09T00:24:14.487Z,68.57
2018-02-09T00:25:20.979Z,68.81
2018-02-09T00:26:26.695Z,68.89
2018-02-09T00:27:33.227Z,68.79
2018-02-09T00:28:38.949Z,68.79
2018-02-09T00:29:44.664Z,68.88
2018-02-09T00:30:50.366Z,68.81
2018-02-09T00:31:56.906Z,68.93
2018-02-09T00:33:02.808Z,68.90
2018-02-09T00:34:08.534Z,68.92
2018-02-09T00:35:14.239Z,68.93
2018-02-09T00:36:19.963Z,68.86
2018-02-09T00:37:25.906Z,68.93
2018-02-09T00:38:31.675Z,69.04
2018-02-09T00:39:38.174Z,69.28
2018-02-09T00:40:43.879Z,69.25
2018-02-09T00:41:50.379Z,69.19
2018-02-09T00:42:56.082Z,69.24
2018-02-09T00:44:01.824Z,69.22
2018-02-09T00:45:08.368Z,69.19
2018-02-09T00:46:14.874Z,69.08
2018-02-09T00:47:20.592Z,68.94
2018-02-09T00:48:27.068Z,68.81
2018-02-09T00:49:32.801Z,68.64
2018-02-09T00:50:38.515Z,68.55
2018-02-09T00:51:44.221Z,68.39
2018-02-09T00:52:49.926Z,68.31
2018-02-09T00:53:55.636Z,68.24
2018-02-09T00:55:02.171Z,68.13
2018-02-09T00:56:07.890Z,68.03
2018-02-09T00:57:13.633Z,68.01
2018-02-09T00:58:19.339Z,67.93
2018-02-09T00:59:25.083Z,67.90
2018-02-09T01:00:31.650Z,68.00
2018-02-09T01:01:38.108Z,67.96
2018-02-09T01:02:43.828Z,68.05
2018-02-09T01:03:50.311Z,68.01
2018-02-09T01:04:56.016Z,67.85
2018-02-09T01:06:02.544Z,67.75
2018-02-09T01:07:08.286Z,67.72
2018-02-09T01:08:14.391Z,67.71
2018-02-09T01:09:20.102Z,67.61
2018-02-09T01:10:25.828Z,67.67
2018-02-09T01:11:31.577Z,67.67
2018-02-09T01:12:37.279Z,67.81
2018-02-09T01:13:43.005Z,67.89
2018-02-09T01:14:48.717Z,68.04
2018-02-09T01:15:55.185Z,68.02
2018-02-09T01:17:00.927Z,68.20
2018-02-09T01:18:06.640Z,68.22
2018-02-09T01:19:13.288Z,68.29
2018-02-09T01:20:18.989Z,68.32
2018-02-09T01:21:24.753Z,68.41
2018-02-09T01:22:30.517Z,68.50
2018-02-09T01:23:36.400Z,68.58
2018-02-09T01:24:42.886Z,68.53
2018-02-09T01:25:48.605Z,68.73
2018-02-09T01:26:54.314Z,68.85
2018-02-09T01:28:00.041Z,68.79
2018-02-09T01:29:05.748Z,69.04
2018-02-09T01:30:11.458Z,69.06
2018-02-09T01:31:17.933Z,69.03
2018-02-09T01:32:23.650Z,69.07
2018-02-09T01:33:30.147Z,69.21
2018-02-09T01:34:35.863Z,69.34
2018-02-09T01:35:41.571Z,69.43
2018-02-09T01:36:47.288Z,69.62
2018-02-09T01:37:53.001Z,69.76
2018-02-09T01:38:58.736Z,69.83
2018-02-09T01:40:04.486Z,69.89
2018-02-09T01:41:10.211Z,70.12
2018-02-09T01:42:15.923Z,70.22
2018-02-09T01:43:21.720Z,70.36
2018-02-09T01:44:27.492Z,70.53
2018-02-09T01:45:33.199Z,70.51
2018-02-09T01:46:38.923Z,70.48
2018-02-09T01:47:44.631Z,70.39
2018-02-09T01:48:51.126Z,70.60
2018-02-09T01:50:13.742Z,70.67
2018-02-09T01:51:20.219Z,70.91
2018-02-09T01:52:25.936Z,71.06
2018-02-09T01:53:32.421Z,71.05
2018-02-09T01:54:38.156Z,71.12
2018-02-09T01:55:43.881Z,71.25
2018-02-09T01:56:49.711Z,71.29
2018-02-09T01:57:55.415Z,71.29
2018-02-09T01:59:01.137Z,71.23
2018-02-09T02:00:06.523Z,71.24
2018-02-09T02:01:13.024Z,71.35
2018-02-09T02:02:18.745Z,71.51
2018-02-09T02:03:24.447Z,71.48
2018-02-09T02:04:30.167Z,71.43
2018-02-09T02:05:35.879Z,71.35
2018-02-09T02:06:41.616Z,71.26
2018-02-09T02:07:47.105Z,71.22
2018-02-09T02:08:53.011Z,71.14
2018-02-09T02:09:58.728Z,71.17
2018-02-09T02:11:05.016Z,71.08
2018-02-09T02:12:10.752Z,71.02
2018-02-09T02:13:16.460Z,70.95
2018-02-09T02:14:22.181Z,70.84
2018-02-09T02:15:29.513Z,70.82
2018-02-09T02:16:35.234Z,70.88
2018-02-09T02:17:41.778Z,71.09
2018-02-09T02:18:47.672Z,71.05
2018-02-09T02:19:53.379Z,70.91
2018-02-09T02:20:59.092Z,70.90
2018-02-09T02:22:05.579Z,71.04
2018-02-09T02:23:11.330Z,71.10
2018-02-09T02:24:17.031Z,71.12
2018-02-09T02:25:23.508Z,71.14
2018-02-09T02:26:29.218Z,71.18
2018-02-09T02:27:35.711Z,71.25
2018-02-09T02:28:41.458Z,71.35
2018-02-09T02:29:47.168Z,71.32
2018-02-09T02:30:53.642Z,71.37
2018-02-09T02:31:59.370Z,71.45
2018-02-09T02:33:05.511Z,71.55
2018-02-09T02:34:12.012Z,71.53
2018-02-09T02:35:17.707Z,71.44
2018-02-09T02:36:24.184Z,71.32
2018-02-09T02:37:30.670Z,71.33
2018-02-09T02:38:36.378Z,71.35
2018-02-09T02:39:42.875Z,71.37
2018-02-09T02:40:48.592Z,71.45
2018-02-09T02:41:55.077Z,71.62
2018-02-09T02:43:00.788Z,71.69
2018-02-09T02:44:06.504Z,71.80
2018-02-09T02:45:12.251Z,71.83
2018-02-09T02:46:18.738Z,71.84
2018-02-09T02:47:24.451Z,71.71
2018-02-09T02:48:30.928Z,71.64
2018-02-09T02:49:36.465Z,71.57
2018-02-09T02:50:42.212Z,71.56
2018-02-09T02:51:47.919Z,71.61
2018-02-09T02:52:54.392Z,71.67
2018-02-09T02:54:00.872Z,71.84
2018-02-09T02:55:06.594Z,71.82
2018-02-09T02:56:13.099Z,71.93
2018-02-09T02:57:18.815Z,71.85
2018-02-09T02:58:24.523Z,72.10
2018-02-09T02:59:31.011Z,72.19
2018-02-09T03:00:36.749Z,72.28
2018-02-09T03:01:42.495Z,72.28
2018-02-09T03:02:48.212Z,72.32
2018-02-09T03:03:54.701Z,72.31
2018-02-09T03:05:00.449Z,72.36
2018-02-09T03:06:06.006Z,72.28
2018-02-09T03:07:11.753Z,72.32
2018-02-09T03:08:17.468Z,72.37
2018-02-09T03:09:23.192Z,72.47
2018-02-09T03:10:28.717Z,72.46
2018-02-09T03:11:34.431Z,72.40
2018-02-09T03:12:40.939Z,72.37
2018-02-09T03:13:46.648Z,72.24
2018-02-09T03:14:53.131Z,72.24
2018-02-09T03:15:58.690Z,72.09
2018-02-09T03:17:04.399Z,72.02
2018-02-09T03:18:10.130Z,71.92
2018-02-09T03:19:15.855Z,71.83
2018-02-09T03:20:22.662Z,71.83
2018-02-09T03:21:28.366Z,71.72
2018-02-09T03:22:34.844Z,71.72
2018-02-09T03:23:40.579Z,71.63
2018-02-09T03:24:46.300Z,71.58
2018-02-09T03:25:52.800Z,71.62
2018-02-09T03:26:58.508Z,71.78
2018-02-09T03:28:04.981Z,71.94
2018-02-09T03:29:10.728Z,72.14
2018-02-09T03:30:16.453Z,72.20
2018-02-09T03:31:22.180Z,72.26
2018-02-09T03:32:28.704Z,72.48
2018-02-09T03:33:34.427Z,72.53
2018-02-09T03:34:40.170Z,72.71
2018-02-09T03:35:45.891Z,72.68
2018-02-09T03:36:51.615Z,72.95
2018-02-09T03:37:57.352Z,73.18
2018-02-09T03:39:03.591Z,73.22
2018-02-09T03:40:10.117Z,73.32
2018-02-09T03:41:15.835Z,73.41
2018-02-09T03:42:21.560Z,73.67
2018-02-09T03:43:27.271Z,73.75
2018-02-09T03:44:33.769Z,73.87
2018-02-09T03:45:39.512Z,73.93
2018-02-09T03:46:45.249Z,74.00
2018-02-09T03:47:50.959Z,74.02
2018-02-09T03:48:57.460Z,74.14
2018-02-09T03:50:03.192Z,74.29
2018-02-09T03:51:08.927Z,74.47
2018-02-09T03:52:14.644Z,74.71
2018-02-09T03:53:21.141Z,74.72
2018-02-09T03:54:26.995Z,74.74
2018-02-09T03:55:32.712Z,74.79
2018-02-09T03:56:38.461Z,74.78
2018-02-09T03:57:44.176Z,74.89
2018-02-09T03:58:50.660Z,75.00
2018-02-09T03:59:56.376Z,75.10
2018-02-09T04:01:02.863Z,75.02
2018-02-09T04:02:08.605Z,74.70
2018-02-09T04:03:14.335Z,74.66
2018-02-09T04:04:20.064Z,74.78
2018-02-09T04:05:25.795Z,74.82
2018-02-09T04:06:32.042Z,74.82
2018-02-09T04:07:38.548Z,74.79
2018-02-09T04:08:44.316Z,74.76
2018-02-09T04:09:50.024Z,74.65
2018-02-09T04:10:55.753Z,74.63
2018-02-09T04:12:01.467Z,74.63
2018-02-09T04:13:07.971Z,74.69
2018-02-09T04:14:14.012Z,74.95
2018-02-09T04:15:19.794Z,75.07
2018-02-09T04:16:25.506Z,75.21
2018-02-09T04:17:31.229Z,75.30
2018-02-09T04:18:36.976Z,75.21
2018-02-09T04:19:42.704Z,75.22
2018-02-09T04:20:48.235Z,75.17
2018-02-09T04:21:53.956Z,75.39
2018-02-09T04:23:00.451Z,75.44
2018-02-09T04:24:06.207Z,75.56
2018-02-09T04:25:11.924Z,75.57
2018-02-09T04:26:17.649Z,75.66
2018-02-09T04:27:24.144Z,75.63
2018-02-09T04:28:29.858Z,75.77
2018-02-09T04:29:35.859Z,75.78
2018-02-09T04:30:42.656Z,75.87
2018-02-09T04:31:49.442Z,75.90
2018-02-09T04:32:55.729Z,75.89
2018-02-09T04:34:01.807Z,75.91
2018-02-09T04:35:08.128Z,75.95
2018-02-09T04:36:14.696Z,75.95
2018-02-09T04:37:20.729Z,75.94
2018-02-09T04:38:28.117Z,75.88
2018-02-09T04:39:35.856Z,75.86
2018-02-09T04:40:42.716Z,75.87
2018-02-09T04:41:48.601Z,75.91
2018-02-09T04:42:55.261Z,76.06
2018-02-09T04:44:01.116Z,76.23
2018-02-09T04:45:07.253Z,76.28
2018-02-09T04:46:14.214Z,76.23
2018-02-09T04:47:20.082Z,76.17
2018-02-09T04:48:26.049Z,76.29
2018-02-09T04:49:32.741Z,76.34
2018-02-09T04:50:39.256Z,76.48
2018-02-09T04:51:45.239Z,76.52
2018-02-09T04:52:51.981Z,76.58
2018-02-09T04:53:58.779Z,76.44
2018-02-09T04:55:04.950Z,76.56
2018-02-09T04:56:10.975Z,76.43
2018-02-09T04:57:16.858Z,76.47
2018-02-09T04:58:22.821Z,76.66
2018-02-09T04:59:28.843Z,76.79
2018-02-09T05:00:35.717Z,76.78
2018-02-09T05:01:42.428Z,76.89
2018-02-09T05:02:49.117Z,77.02
2018-02-09T05:03:55.348Z,77.05
2018-02-09T05:05:02.175Z,77.07
2018-02-09T05:06:08.691Z,77.15
2018-02-09T05:07:14.752Z,77.11
2018-02-09T05:08:20.669Z,77.12
2018-02-09T05:09:27.421Z,77.09
2018-02-09T05:10:34.414Z,77.07
2018-02-09T05:11:41.726Z,77.13
2018-02-09T05:12:47.831Z,77.15
2018-02-09T05:13:54.557Z,77.33
2018-02-09T05:15:01.396Z,77.45
2018-02-09T05:16:07.555Z,77.46
2018-02-09T05:17:14.462Z,77.44
2018-02-09T05:18:20.180Z,77.50
2018-02-09T05:19:26.184Z,77.42
2018-02-09T05:20:32.169Z,77.38
2018-02-09T05:21:38.210Z,77.36
2018-02-09T05:22:44.194Z,77.43
2018-02-09T05:23:50.317Z,77.52
2018-02-09T05:24:56.280Z,77.57
2018-02-09T05:26:02.177Z,77.63
2018-02-09T05:27:07.964Z,77.66
2018-02-09T05:28:13.882Z,77.71
2018-02-09T05:29:19.946Z,77.71
2018-02-09T05:30:25.993Z,77.72
2018-02-09T05:31:31.941Z,77.84
2018-02-09T05:32:37.975Z,77.79
2018-02-09T05:33:44.684Z,77.77
2018-02-09T05:34:50.425Z,77.82
2018-02-09T05:35:56.541Z,78.00
2018-02-09T05:37:02.488Z,78.00
2018-02-09T05:38:08.300Z,77.99
2018-02-09T05:39:14.442Z,78.07
2018-02-09T05:40:20.301Z,78.18
2018-02-09T05:41:27.017Z,78.31
2018-02-09T05:42:34.560Z,78.31
2018-02-09T05:43:40.696Z,78.34
2018-02-09T05:44:47.129Z,78.35
2018-02-09T05:45:53.132Z,78.37
2018-02-09T05:46:59.096Z,78.54
2018-02-09T05:48:04.863Z,78.58
2018-02-09T05:49:10.774Z,78.69
2018-02-09T05:50:16.797Z,78.75
2018-02-09T05:51:22.736Z,78.85
2018-02-09T05:52:29.486Z,78.95
2018-02-09T05:53:35.537Z,79.04
2018-02-09T05:54:41.454Z,79.12
2018-02-09T05:55:47.307Z,79.18
2018-02-09T05:56:53.307Z,79.20
2018-02-09T05:57:59.967Z,79.21
2018-02-09T05:59:06.230Z,79.22
2018-02-09T06:00:11.974Z,79.32
2018-02-09T06:01:17.702Z,79.37
2018-02-09T06:02:23.459Z,79.53
2018-02-09T06:03:29.216Z,79.59
2018-02-09T06:04:34.927Z,79.59
2018-02-09T06:05:40.671Z,79.71
2018-02-09T06:06:46.605Z,79.71
2018-02-09T06:07:52.007Z,79.69
2018-02-09T06:08:58.104Z,79.81
2018-02-09T06:10:03.821Z,79.82
2018-02-09T06:11:09.548Z,79.95
2018-02-09T06:12:16.043Z,80.03
2018-02-09T06:13:21.778Z,80.05
2018-02-09T06:14:27.549Z,80.02
2018-02-09T06:15:33.276Z,79.94
2018-02-09T06:16:39.004Z,80.05
2018-02-09T06:17:44.723Z,79.99
2018-02-09T06:18:51.230Z,79.90
2018-02-09T06:19:57.164Z,79.88
2018-02-09T06:21:02.888Z,80.15
2018-02-09T06:22:08.612Z,80.01
2018-02-09T06:23:14.356Z,80.07
2018-02-09T06:24:20.080Z,80.00
2018-02-09T06:25:26.600Z,80.00
2018-02-09T06:26:32.386Z,80.08
2018-02-09T06:27:38.880Z,80.17
2018-02-09T06:28:44.610Z,80.16
2018-02-09T06:29:50.367Z,80.14
2018-02-09T06:30:56.113Z,79.89
2018-02-09T06:32:01.836Z,79.80
2018-02-09T06:33:07.773Z,79.56
2018-02-09T06:34:13.487Z,79.40
2018-02-09T06:35:20.023Z,79.15
2018-02-09T06:36:25.775Z,79.09
2018-02-09T06:37:31.515Z,79.05
2018-02-09T06:38:38.020Z,78.97
2018-02-09T06:39:43.731Z,78.73
2018-02-09T06:40:50.232Z,78.81
2018-02-09T06:41:55.987Z,78.90
2018-02-09T06:43:01.711Z,78.79
2018-02-09T06:44:07.339Z,78.78
2018-02-09T06:45:13.051Z,78.93
2018-02-09T06:46:19.535Z,78.83
2018-02-09T06:47:26.099Z,79.03
2018-02-09T06:48:31.817Z,79.07
2018-02-09T06:49:38.307Z,79.14
2018-02-09T06:50:44.039Z,79.29
2018-02-09T06:51:49.760Z,79.23
2018-02-09T06:52:56.282Z,79.21
2018-02-09T06:54:02.009Z,79.18
2018-02-09T06:55:07.736Z,79.19
2018-02-09T06:56:13.465Z,79.22
2018-02-09T06:57:19.213Z,79.27
2018-02-09T06:58:24.967Z,79.30
2018-02-09T06:59:30.691Z,79.21
2018-02-09T07:00:37.627Z,79.21
2018-02-09T07:01:44.116Z,79.19
2018-02-09T07:02:50.108Z,79.36
2018-02-09T07:03:56.002Z,79.43
2018-02-09T07:05:01.974Z,79.47
2018-02-09T07:06:07.843Z,79.50
2018-02-09T07:07:13.561Z,79.61
2018-02-09T07:08:19.295Z,79.82
2018-02-09T07:09:25.082Z,79.90
2018-02-09T07:10:30.824Z,80.01
2018-02-09T07:11:37.724Z,80.00
2018-02-09T07:13:47.154Z,80.05
2018-02-09T07:14:53.776Z,80.18
2018-02-09T07:15:59.664Z,80.26
2018-02-09T07:17:05.375Z,80.31
2018-02-09T07:18:12.106Z,80.23
2018-02-09T07:19:17.847Z,80.10
2018-02-09T07:20:23.600Z,80.03
2018-02-09T07:21:30.848Z,79.96
2018-02-09T07:22:36.620Z,79.90
2018-02-09T07:23:42.340Z,79.80
2018-02-09T07:24:48.069Z,79.67
2018-02-09T07:25:53.879Z,79.61
2018-02-09T07:26:59.613Z,79.57
2018-02-09T07:28:06.103Z,79.46
2018-02-09T07:29:11.833Z,79.39
2018-02-09T07:30:17.569Z,79.30
2018-02-09T07:31:24.101Z,79.31
2018-02-09T07:32:30.798Z,79.24
2018-02-09T07:33:37.486Z,79.09
2018-02-09T07:34:43.290Z,79.06
2018-02-09T07:35:49.909Z,78.86
2018-02-09T07:36:56.468Z,78.69
2018-02-09T07:38:02.347Z,78.34
2018-02-09T07:39:08.356Z,77.96
2018-02-09T07:40:14.843Z,77.73
2018-02-09T07:41:21.360Z,77.53
2018-02-09T07:42:27.123Z,77.32
2018-02-09T07:43:32.919Z,77.17
2018-02-09T07:44:38.636Z,76.91
2018-02-09T07:45:45.136Z,76.73
2018-02-09T07:46:50.872Z,76.57
2018-02-09T07:47:56.624Z,76.42
2018-02-09T07:49:02.365Z,76.21
2018-02-09T07:50:08.083Z,76.04
2018-02-09T07:51:13.809Z,76.01
2018-02-09T07:52:19.288Z,75.96
2018-02-09T07:53:25.071Z,75.91
2018-02-09T07:54:31.464Z,75.82
2018-02-09T07:55:37.200Z,75.60
2018-02-09T07:56:42.942Z,75.40
2018-02-09T07:57:48.492Z,75.33
2018-02-09T07:58:54.260Z,75.32
2018-02-09T08:00:00.788Z,75.33
2018-02-09T08:01:06.716Z,75.13
2018-02-09T08:02:12.462Z,75.02
2018-02-09T08:03:18.203Z,74.92
2018-02-09T08:04:23.948Z,74.66
2018-02-09T08:05:29.680Z,74.55
2018-02-09T08:06:35.415Z,74.45
2018-02-09T08:07:42.674Z,74.36
2018-02-09T08:08:49.176Z,74.25
2018-02-09T08:09:54.916Z,74.07
2018-02-09T08:11:00.714Z,73.87
2018-02-09T08:12:07.307Z,73.77
2018-02-09T08:13:13.060Z,73.72
2018-02-09T08:14:18.803Z,73.70
2018-02-09T08:15:24.885Z,73.57
2018-02-09T08:16:30.601Z,73.52
2018-02-09T08:17:36.318Z,73.59
2018-02-09T08:18:42.060Z,73.54
2018-02-09T08:19:47.800Z,73.45
2018-02-09T08:20:53.549Z,73.27
2018-02-09T08:21:59.156Z,73.13
2018-02-09T08:23:05.645Z,72.87
2018-02-09T08:24:11.359Z,72.83
2018-02-09T08:25:17.852Z,72.83
2018-02-09T08:26:23.615Z,72.78
2018-02-09T08:27:29.352Z,72.65
2018-02-09T08:28:35.067Z,72.57
2018-02-09T08:29:40.776Z,72.30
2018-02-09T08:30:47.265Z,72.09
2018-02-09T08:31:53.008Z,71.88
2018-02-09T08:32:58.720Z,71.41
2018-02-09T08:34:05.228Z,70.98
2018-02-09T08:35:10.949Z,70.63
2018-02-09T08:36:16.954Z,70.06
2018-02-09T08:37:22.690Z,69.15
2018-02-09T08:38:28.401Z,68.12
2018-02-09T08:39:34.164Z,67.26
2018-02-09T08:40:40.095Z,66.38
2018-02-09T08:41:45.824Z,65.63
2018-02-09T08:42:51.296Z,65.06
2018-02-09T08:43:57.058Z,64.31
2018-02-09T08:45:02.787Z,63.49
2018-02-09T08:46:08.508Z,62.69
2018-02-09T08:47:14.232Z,61.55
2018-02-09T08:48:19.983Z,61.54
2018-02-09T08:49:25.696Z,61.33
2018-02-09T08:50:32.216Z,60.98
2018-02-09T08:51:37.932Z,60.42
2018-02-09T08:52:43.639Z,59.57
2018-02-09T08:53:49.400Z,58.75
2018-02-09T08:54:55.132Z,58.11
2018-02-09T08:56:00.844Z,57.83
2018-02-09T08:57:07.131Z,57.26
2018-02-09T08:58:12.858Z,56.81
2018-02-09T08:59:19.561Z,56.18
2018-02-09T09:00:25.575Z,55.74
2018-02-09T09:01:31.625Z,55.64
2018-02-09T09:02:37.372Z,55.18
2018-02-09T09:03:43.084Z,54.93
2018-02-09T09:04:49.592Z,54.50
2018-02-09T09:05:55.303Z,54.22
2018-02-09T09:07:01.012Z,53.75
2018-02-09T09:08:07.501Z,53.76
2018-02-09T09:09:13.451Z,53.68
2018-02-09T09:10:19.274Z,53.61
2018-02-09T09:11:25.848Z,53.50
2018-02-09T09:12:31.999Z,53.14
2018-02-09T09:13:37.721Z,52.27
2018-02-09T09:14:44.285Z,52.29
2018-02-09T09:15:50.960Z,51.98
2018-02-09T09:16:56.768Z,51.80
2018-02-09T09:18:03.273Z,51.06
2018-02-09T09:19:08.979Z,50.66
2018-02-09T09:20:15.487Z,50.57
2018-02-09T09:21:21.223Z,50.50
2018-02-09T09:22:26.736Z,49.80
2018-02-09T09:23:32.482Z,49.40
2018-02-09T09:24:37.949Z,48.50
2018-02-09T09:25:43.747Z,48.52
2018-02-09T09:26:50.287Z,48.45
2018-02-09T09:27:55.992Z,48.48
2018-02-09T09:29:01.714Z,48.64
2018-02-09T09:30:07.431Z,48.61
2018-02-09T09:31:13.901Z,48.60
2018-02-09T09:32:19.636Z,48.26
2018-02-09T09:33:26.133Z,47.93
2018-02-09T09:34:31.841Z,47.53
2018-02-09T09:35:37.552Z,47.05
2018-02-09T09:36:43.260Z,46.90
2018-02-09T09:37:49.029Z,46.65
2018-02-09T09:38:55.507Z,46.61
2018-02-09T09:40:01.978Z,46.65
2018-02-09T09:41:07.686Z,46.44
2018-02-09T09:42:13.410Z,46.28
2018-02-09T09:43:19.149Z,46.31
2018-02-09T09:44:24.886Z,46.25
2018-02-09T09:45:30.593Z,46.46
2018-02-09T09:46:36.315Z,46.49
2018-02-09T09:47:42.790Z,46.53
2018-02-09T09:48:48.528Z,46.28
2018-02-09T09:49:54.035Z,46.47
2018-02-09T09:51:00.516Z,46.34
2018-02-09T09:52:06.261Z,46.25
2018-02-09T09:53:11.961Z,46.42
2018-02-09T09:54:17.696Z,46.32
2018-02-09T09:55:24.932Z,46.14
2018-02-09T09:56:30.658Z,46.07
2018-02-09T09:57:36.459Z,45.96
2018-02-09T09:58:42.954Z,46.09
2018-02-09T09:59:49.447Z,45.78
2018-02-09T10:00:55.169Z,45.88
2018-02-09T10:02:00.876Z,45.90
2018-02-09T10:03:07.368Z,45.81
2018-02-09T10:04:13.095Z,46.01
2018-02-09T10:05:18.832Z,46.23
2018-02-09T10:06:24.555Z,46.36
2018-02-09T10:07:31.044Z,46.54
2018-02-09T10:08:36.752Z,46.87
2018-02-09T10:09:43.245Z,47.19
2018-02-09T10:10:48.989Z,47.55
2018-02-09T10:11:54.754Z,47.64
2018-02-09T10:13:00.460Z,47.80
2018-02-09T10:14:06.184Z,48.00
2018-02-09T10:15:12.656Z,48.14
2018-02-09T10:16:18.402Z,48.39
2018-02-09T10:17:24.151Z,48.55
2018-02-09T10:18:29.850Z,48.75
2018-02-09T10:19:36.332Z,48.96
2018-02-09T10:20:42.056Z,49.23
2018-02-09T10:21:48.552Z,49.37
2018-02-09T10:22:54.281Z,49.29
2018-02-09T10:24:02.667Z,49.20
2018-02-09T10:25:08.401Z,49.07
2018-02-09T10:26:14.880Z,49.07
2018-02-09T10:27:20.719Z,48.98
2018-02-09T10:28:26.425Z,48.98
2018-02-09T10:29:32.140Z,49.05
2018-02-09T10:30:37.876Z,49.22
2018-02-09T10:31:43.686Z,49.19
2018-02-09T10:32:49.440Z,49.22
2018-02-09T10:33:55.147Z,49.35
2018-02-09T10:35:01.629Z,49.40
2018-02-09T10:36:07.345Z,49.26
2018-02-09T10:37:13.826Z,49.14
2018-02-09T10:38:22.193Z,49.22
2018-02-09T10:39:27.891Z,49.38
2018-02-09T10:40:33.704Z,49.46
2018-02-09T10:41:40.180Z,49.60
2018-02-09T10:42:45.912Z,49.50
2018-02-09T10:43:51.640Z,49.50
2018-02-09T10:44:58.159Z,49.80
2018-02-09T10:46:03.892Z,49.77
2018-02-09T10:47:09.609Z,49.82
2018-02-09T10:48:15.323Z,49.96
2018-02-09T10:49:21.085Z,50.06
2018-02-09T10:50:26.841Z,50.06
2018-02-09T10:51:32.659Z,50.08
2018-02-09T10:52:38.371Z,50.22
2018-02-09T10:53:44.865Z,50.12
2018-02-09T10:54:50.605Z,50.00
2018-02-09T10:55:56.332Z,49.87
2018-02-09T10:57:02.044Z,49.86
2018-02-09T10:58:08.533Z,49.78
2018-02-09T10:59:14.274Z,49.78
2018-02-09T11:01:58.946Z,49.75
2018-02-09T11:03:04.667Z,49.66
2018-02-09T11:04:11.162Z,49.47
2018-02-09T11:05:16.892Z,49.56
2018-02-09T11:06:22.633Z,49.33
2018-02-09T11:07:28.341Z,49.19
2018-02-09T11:08:34.819Z,49.09
2018-02-09T11:09:40.353Z,49.24
2018-02-09T11:10:50.420Z,49.46
2018-02-09T11:12:01.892Z,49.65
2018-02-09T11:13:13.079Z,50.15
2018-02-09T11:14:18.784Z,50.52
2018-02-09T11:15:24.501Z,50.40
2018-02-09T11:16:30.967Z,50.40
2018-02-09T11:17:37.527Z,50.63
2018-02-09T11:18:44.067Z,50.92
2018-02-09T11:19:50.569Z,50.89
2018-02-09T11:20:56.539Z,50.53
2018-02-09T11:22:02.305Z,50.74
2018-02-09T11:23:08.153Z,51.08
2018-02-09T11:24:15.366Z,51.12
2018-02-09T11:25:21.117Z,50.97
2018-02-09T11:26:26.890Z,51.16
2018-02-09T11:27:32.864Z,51.24
2018-02-09T11:28:38.740Z,51.30
2018-02-09T11:29:45.230Z,51.47
2018-02-09T11:30:51.228Z,51.60
2018-02-09T11:31:57.716Z,51.73
2018-02-09T11:33:03.452Z,51.91
2018-02-09T11:34:09.188Z,52.09
2018-02-09T11:35:15.410Z,52.27
2018-02-09T11:36:21.116Z,52.28
2018-02-09T11:37:26.828Z,52.01
2018-02-09T11:38:32.552Z,52.30
2018-02-09T11:39:38.318Z,52.47
2018-02-09T11:40:44.041Z,52.51
2018-02-09T11:41:49.756Z,52.61
2018-02-09T11:42:56.224Z,52.79
2018-02-09T11:44:02.730Z,52.90
2018-02-09T11:45:08.476Z,52.76
2018-02-09T11:46:14.191Z,52.69
2018-02-09T11:47:19.893Z,52.68
2018-02-09T11:48:26.380Z,52.94
2018-02-09T11:49:32.122Z,53.00
2018-02-09T11:50:38.813Z,53.21
2018-02-09T11:51:45.289Z,53.43
2018-02-09T11:52:51.002Z,53.56
2018-02-09T11:53:56.736Z,53.67
2018-02-09T11:55:02.445Z,53.55
2018-02-09T11:56:08.963Z,53.55
2018-02-09T11:57:14.681Z,53.60
2018-02-09T11:58:20.394Z,53.80
2018-02-09T11:59:26.867Z,53.83
2018-02-09T12:00:32.616Z,53.85
2018-02-09T12:01:38.370Z,53.97
2018-02-09T12:02:44.238Z,54.12
2018-02-09T12:03:49.944Z,54.06
2018-02-09T12:04:55.662Z,53.92
2018-02-09T12:06:02.147Z,53.71
2018-02-09T12:07:07.908Z,53.60
2018-02-09T12:08:13.646Z,53.42
2018-02-09T12:09:19.357Z,53.26
2018-02-09T12:10:25.117Z,53.04
2018-02-09T12:11:30.866Z,52.96
2018-02-09T12:12:36.608Z,52.74
2018-02-09T12:13:42.328Z,52.50
2018-02-09T12:14:48.032Z,52.40
2018-02-09T12:15:54.517Z,52.23
2018-02-09T12:17:00.294Z,51.83
2018-02-09T12:18:06.028Z,51.69
2018-02-09T12:19:11.799Z,51.63
2018-02-09T12:20:17.517Z,51.64
2018-02-09T12:21:23.232Z,51.57
2018-02-09T12:22:28.941Z,51.58
2018-02-09T12:23:35.460Z,51.64
2018-02-09T12:24:41.176Z,51.91
2018-02-09T12:25:47.212Z,52.00
2018-02-09T12:26:52.940Z,52.14
2018-02-09T12:27:58.656Z,52.35
2018-02-09T12:29:04.389Z,52.61
2018-02-09T12:30:09.832Z,52.56
2018-02-09T12:31:15.610Z,52.54
2018-02-09T12:32:21.325Z,52.69
2018-02-09T12:33:27.798Z,52.71
2018-02-09T12:34:33.543Z,52.73
2018-02-09T12:35:39.148Z,52.59
2018-02-09T12:36:44.957Z,52.12
2018-02-09T12:37:50.784Z,52.10
2018-02-09T12:38:56.513Z,52.18
2018-02-09T12:40:02.333Z,52.16
2018-02-09T12:41:08.953Z,52.12
2018-02-09T12:42:15.407Z,52.01
2018-02-09T12:43:21.943Z,51.81
2018-02-09T12:44:27.695Z,51.62
2018-02-09T12:45:33.465Z,51.68
2018-02-09T12:46:39.224Z,51.64
2018-02-09T12:47:45.721Z,51.53
2018-02-09T12:48:53.196Z,51.45
2018-02-09T12:49:59.672Z,51.30
2018-02-09T12:51:05.898Z,51.31
2018-02-09T12:52:11.636Z,51.16
2018-02-09T12:53:19.080Z,51.04
2018-02-09T12:54:24.948Z,51.02
2018-02-09T12:55:30.660Z,51.10
2018-02-09T12:56:37.159Z,51.02
2018-02-09T12:57:43.652Z,51.00
2018-02-09T12:58:49.407Z,51.17
2018-02-09T12:59:55.118Z,51.27
2018-02-09T13:01:00.932Z,51.42
2018-02-09T13:02:07.445Z,51.44
2018-02-09T13:03:13.259Z,51.47
2018-02-09T13:04:19.037Z,51.77
2018-02-09T13:05:24.783Z,51.93
2018-02-09T13:06:30.516Z,52.03
2018-02-09T13:07:36.263Z,52.10
2018-02-09T13:08:42.889Z,52.40
2018-02-09T13:09:48.849Z,52.52
2018-02-09T13:10:54.568Z,52.63
2018-02-09T13:12:01.833Z,52.53
2018-02-09T13:13:12.343Z,52.46
2018-02-09T13:14:35.420Z,52.49
2018-02-09T13:15:41.152Z,52.42
2018-02-09T13:16:46.885Z,52.30
2018-02-09T13:17:52.665Z,52.08
2018-02-09T13:18:59.492Z,52.08
2018-02-09T13:20:05.351Z,52.20
2018-02-09T13:21:11.101Z,100.00
